sensor_id;sensor_type;location;lat;lon;timestamp;pressure;altitude;pressure_sealevel;temperature;humidity
11525;BME280;5819;49.648;8.330;2023-09-19T00:01:03;99906.44;;;16.48;100.00
11525;BME280;5819;49.648;8.330;2023-09-19T00:03:35;99905.84;;;16.56;100.00
11525;BME280;5819;49.648;8.330;2023-09-19T00:06:05;99905.22;;;16.65;100.00
11525;BME280;5819;49.648;8.330;2023-09-19T00:08:34;99905.09;;;16.77;100.00
11525;BME280;5819;49.648;8.330;2023-09-19T00:11:02;99907.72;;;16.77;100.00
11525;BME280;5819;49.648;8.330;2023-09-19T00:13:30;99898.31;;;16.86;100.00
11525;BME280;5819;49.648;8.330;2023-09-19T00:15:58;99909.44;;;16.90;100.00
11525;BME280;5819;49.648;8.330;2023-09-19T00:18:26;99905.63;;;16.94;100.00
11525;BME280;5819;49.648;8.330;2023-09-19T00:20:58;99901.22;;;16.94;100.00
11525;BME280;5819;49.648;8.330;2023-09-19T00:23:26;99901.56;;;16.90;100.00
11525;BME280;5819;49.648;8.330;2023-09-19T00:25:58;99903.25;;;16.91;100.00
11525;BME280;5819;49.648;8.330;2023-09-19T00:28:26;99896.31;;;16.90;100.00
11525;BME280;5819;49.648;8.330;2023-09-19T00:30:54;99900.72;;;16.89;100.00
11525;BME280;5819;49.648;8.330;2023-09-19T00:33:22;99907.16;;;16.85;100.00
11525;BME280;5819;49.648;8.330;2023-09-19T00:35:52;99909.78;;;16.85;100.00
11525;BME280;5819;49.648;8.330;2023-09-19T00:38:21;99906.34;;;16.84;100.00
11525;BME280;5819;49.648;8.330;2023-09-19T00:40:54;99914.59;;;16.91;100.00
11525;BME280;5819;49.648;8.330;2023-09-19T00:43:26;99909.22;;;16.93;100.00
11525;BME280;5819;49.648;8.330;2023-09-19T00:45:55;99902.09;;;17.17;100.00
11525;BME280;5819;49.648;8.330;2023-09-19T00:48:24;99905.53;;;17.17;100.00
11525;BME280;5819;49.648;8.330;2023-09-19T00:50:54;99912.88;;;17.25;100.00
11525;BME280;5819;49.648;8.330;2023-09-19T00:53:24;99916.56;;;17.22;100.00
11525;BME280;5819;49.648;8.330;2023-09-19T00:55:54;99917.50;;;17.21;100.00
11525;BME280;5819;49.648;8.330;2023-09-19T00:58:22;99921.72;;;17.24;100.00
11525;BME280;5819;49.648;8.330;2023-09-19T01:00:51;99930.44;;;17.24;100.00
11525;BME280;5819;49.648;8.330;2023-09-19T01:03:20;99922.16;;;17.18;100.00
11525;BME280;5819;49.648;8.330;2023-09-19T01:05:49;99924.78;;;17.18;100.00
11525;BME280;5819;49.648;8.330;2023-09-19T01:08:18;99926.56;;;17.17;100.00
11525;BME280;5819;49.648;8.330;2023-09-19T01:10:51;99928.16;;;17.20;100.00
11525;BME280;5819;49.648;8.330;2023-09-19T01:13:26;99928.00;;;17.21;100.00
11525;BME280;5819;49.648;8.330;2023-09-19T01:16:02;99924.69;;;17.19;100.00
11525;BME280;5819;49.648;8.330;2023-09-19T01:18:38;99926.38;;;17.20;100.00
11525;BME280;5819;49.648;8.330;2023-09-19T01:21:15;99933.28;;;17.21;100.00
11525;BME280;5819;49.648;8.330;2023-09-19T01:24:07;99933.91;;;17.25;100.00
11525;BME280;5819;49.648;8.330;2023-09-19T01:29:36;99944.16;;;17.17;100.00
11525;BME280;5819;49.648;8.330;2023-09-19T01:32:08;99950.03;;;17.20;100.00
11525;BME280;5819;49.648;8.330;2023-09-19T01:34:45;99957.31;;;17.17;100.00
11525;BME280;5819;49.648;8.330;2023-09-19T01:37:16;99960.75;;;17.17;100.00
11525;BME280;5819;49.648;8.330;2023-09-19T01:39:48;99960.66;;;17.19;100.00
11525;BME280;5819;49.648;8.330;2023-09-19T01:42:24;99960.19;;;17.25;100.00
11525;BME280;5819;49.648;8.330;2023-09-19T01:45:02;99958.16;;;17.28;100.00
11525;BME280;5819;49.648;8.330;2023-09-19T01:47:35;99961.16;;;17.35;100.00
11525;BME280;5819;49.648;8.330;2023-09-19T01:50:12;99957.34;;;17.39;100.00
11525;BME280;5819;49.648;8.330;2023-09-19T01:52:47;99962.09;;;17.34;100.00
11525;BME280;5819;49.648;8.330;2023-09-19T01:55:18;99969.28;;;17.32;100.00
11525;BME280;5819;49.648;8.330;2023-09-19T01:57:54;99964.63;;;17.36;100.00
11525;BME280;5819;49.648;8.330;2023-09-19T02:00:27;99970.72;;;17.36;100.00
11525;BME280;5819;49.648;8.330;2023-09-19T02:02:59;99962.72;;;17.49;100.00
11525;BME280;5819;49.648;8.330;2023-09-19T02:05:27;99961.28;;;17.45;100.00
11525;BME280;5819;49.648;8.330;2023-09-19T02:07:56;99973.13;;;17.39;100.00
11525;BME280;5819;49.648;8.330;2023-09-19T02:10:25;99980.16;;;17.39;100.00
11525;BME280;5819;49.648;8.330;2023-09-19T02:12:53;99979.06;;;17.30;100.00
11525;BME280;5819;49.648;8.330;2023-09-19T02:15:21;99982.19;;;17.35;100.00
11525;BME280;5819;49.648;8.330;2023-09-19T02:17:50;99988.75;;;17.29;100.00
11525;BME280;5819;49.648;8.330;2023-09-19T02:20:20;99993.63;;;17.23;100.00
11525;BME280;5819;49.648;8.330;2023-09-19T02:22:49;100000.41;;;17.14;100.00
11525;BME280;5819;49.648;8.330;2023-09-19T02:25:18;100005.31;;;17.08;100.00
11525;BME280;5819;49.648;8.330;2023-09-19T02:27:47;100006.59;;;17.02;100.00
11525;BME280;5819;49.648;8.330;2023-09-19T02:30:15;100008.50;;;17.00;100.00
11525;BME280;5819;49.648;8.330;2023-09-19T02:32:49;100013.53;;;17.03;100.00
11525;BME280;5819;49.648;8.330;2023-09-19T02:35:17;100018.69;;;17.05;100.00
11525;BME280;5819;49.648;8.330;2023-09-19T02:37:48;100016.88;;;17.05;100.00
11525;BME280;5819;49.648;8.330;2023-09-19T02:40:16;100019.34;;;16.96;100.00
11525;BME280;5819;49.648;8.330;2023-09-19T02:42:53;100013.47;;;16.81;100.00
11525;BME280;5819;49.648;8.330;2023-09-19T02:45:23;100020.31;;;16.71;100.00
11525;BME280;5819;49.648;8.330;2023-09-19T02:47:52;100028.00;;;16.61;100.00
11525;BME280;5819;49.648;8.330;2023-09-19T02:50:20;100037.25;;;16.67;100.00
11525;BME280;5819;49.648;8.330;2023-09-19T02:52:52;100029.28;;;16.68;100.00
11525;BME280;5819;49.648;8.330;2023-09-19T02:55:20;100036.13;;;16.58;100.00
11525;BME280;5819;49.648;8.330;2023-09-19T02:57:50;100027.81;;;16.52;100.00
11525;BME280;5819;49.648;8.330;2023-09-19T03:00:20;100037.06;;;16.57;100.00
11525;BME280;5819;49.648;8.330;2023-09-19T03:02:50;100036.97;;;16.46;100.00
11525;BME280;5819;49.648;8.330;2023-09-19T03:05:19;100037.84;;;16.34;100.00
11525;BME280;5819;49.648;8.330;2023-09-19T03:07:48;100040.41;;;16.23;100.00
11525;BME280;5819;49.648;8.330;2023-09-19T03:10:19;100045.25;;;16.16;100.00
11525;BME280;5819;49.648;8.330;2023-09-19T03:12:47;100051.13;;;16.20;100.00
11525;BME280;5819;49.648;8.330;2023-09-19T03:15:16;100047.94;;;16.27;100.00
11525;BME280;5819;49.648;8.330;2023-09-19T03:17:46;100048.03;;;16.26;100.00
11525;BME280;5819;49.648;8.330;2023-09-19T03:20:19;100052.66;;;16.35;100.00
11525;BME280;5819;49.648;8.330;2023-09-19T03:22:48;100053.25;;;16.51;100.00
11525;BME280;5819;49.648;8.330;2023-09-19T03:25:16;100057.13;;;16.58;100.00
11525;BME280;5819;49.648;8.330;2023-09-19T03:27:50;100058.59;;;16.62;100.00
11525;BME280;5819;49.648;8.330;2023-09-19T03:30:20;100059.53;;;16.61;100.00
11525;BME280;5819;49.648;8.330;2023-09-19T03:32:49;100065.94;;;16.57;100.00
11525;BME280;5819;49.648;8.330;2023-09-19T03:35:19;100064.38;;;16.55;100.00
11525;BME280;5819;49.648;8.330;2023-09-19T03:37:47;100063.75;;;16.51;100.00
11525;BME280;5819;49.648;8.330;2023-09-19T03:40:16;100064.16;;;16.45;100.00
11525;BME280;5819;49.648;8.330;2023-09-19T03:42:49;100069.88;;;16.39;100.00
11525;BME280;5819;49.648;8.330;2023-09-19T03:45:17;100063.88;;;16.37;100.00
11525;BME280;5819;49.648;8.330;2023-09-19T03:47:51;100065.03;;;16.33;100.00
11525;BME280;5819;49.648;8.330;2023-09-19T03:50:22;100060.00;;;16.30;100.00
11525;BME280;5819;49.648;8.330;2023-09-19T03:52:50;100059.28;;;16.28;100.00
11525;BME280;5819;49.648;8.330;2023-09-19T03:55:18;100066.31;;;16.27;100.00
11525;BME280;5819;49.648;8.330;2023-09-19T03:57:49;100070.94;;;16.24;100.00
11525;BME280;5819;49.648;8.330;2023-09-19T04:00:17;100076.53;;;16.19;100.00
11525;BME280;5819;49.648;8.330;2023-09-19T04:02:48;100080.22;;;16.17;100.00
11525;BME280;5819;49.648;8.330;2023-09-19T04:05:16;100077.06;;;16.12;100.00
11525;BME280;5819;49.648;8.330;2023-09-19T04:07:45;100080.84;;;16.08;100.00
11525;BME280;5819;49.648;8.330;2023-09-19T04:10:13;100084.72;;;16.02;100.00
11525;BME280;5819;49.648;8.330;2023-09-19T04:12:51;100084.09;;;15.99;100.00
11525;BME280;5819;49.648;8.330;2023-09-19T04:15:22;100078.94;;;15.97;100.00
11525;BME280;5819;49.648;8.330;2023-09-19T04:17:52;100085.88;;;15.98;100.00
11525;BME280;5819;49.648;8.330;2023-09-19T04:20:20;100083.03;;;16.01;100.00
11525;BME280;5819;49.648;8.330;2023-09-19T04:22:50;100086.72;;;15.99;100.00
11525;BME280;5819;49.648;8.330;2023-09-19T04:25:18;100090.28;;;15.98;100.00
11525;BME280;5819;49.648;8.330;2023-09-19T04:27:47;100098.38;;;15.95;100.00
11525;BME280;5819;49.648;8.330;2023-09-19T04:30:16;100095.84;;;15.93;100.00
11525;BME280;5819;49.648;8.330;2023-09-19T04:32:44;100098.59;;;15.91;100.00
11525;BME280;5819;49.648;8.330;2023-09-19T04:35:16;100102.25;;;15.89;100.00
11525;BME280;5819;49.648;8.330;2023-09-19T04:37:44;100099.53;;;15.90;100.00
11525;BME280;5819;49.648;8.330;2023-09-19T04:40:12;100098.69;;;15.90;100.00
11525;BME280;5819;49.648;8.330;2023-09-19T04:42:42;100105.06;;;15.86;100.00
11525;BME280;5819;49.648;8.330;2023-09-19T04:45:10;100115.25;;;15.90;100.00
11525;BME280;5819;49.648;8.330;2023-09-19T04:47:39;100115.78;;;15.83;100.00
11525;BME280;5819;49.648;8.330;2023-09-19T04:50:10;100121.25;;;15.80;100.00
11525;BME280;5819;49.648;8.330;2023-09-19T04:52:40;100123.75;;;15.81;100.00
11525;BME280;5819;49.648;8.330;2023-09-19T04:55:11;100130.78;;;15.81;100.00
11525;BME280;5819;49.648;8.330;2023-09-19T04:57:43;100127.44;;;15.79;100.00
11525;BME280;5819;49.648;8.330;2023-09-19T05:00:13;100133.09;;;15.85;100.00
11525;BME280;5819;49.648;8.330;2023-09-19T05:02:43;100145.59;;;15.95;100.00
11525;BME280;5819;49.648;8.330;2023-09-19T05:05:11;100136.25;;;16.03;100.00
11525;BME280;5819;49.648;8.330;2023-09-19T05:07:41;100140.56;;;16.04;100.00
11525;BME280;5819;49.648;8.330;2023-09-19T05:10:10;100136.03;;;16.06;100.00
11525;BME280;5819;49.648;8.330;2023-09-19T05:12:40;100141.41;;;16.05;100.00
11525;BME280;5819;49.648;8.330;2023-09-19T05:15:08;100144.97;;;16.04;100.00
11525;BME280;5819;49.648;8.330;2023-09-19T05:17:36;100149.06;;;16.08;100.00
11525;BME280;5819;49.648;8.330;2023-09-19T05:20:07;100153.78;;;16.15;100.00
11525;BME280;5819;49.648;8.330;2023-09-19T05:22:39;100160.72;;;16.16;100.00
11525;BME280;5819;49.648;8.330;2023-09-19T05:25:08;100163.13;;;16.19;100.00
11525;BME280;5819;49.648;8.330;2023-09-19T05:27:35;100155.88;;;16.23;100.00
11525;BME280;5819;49.648;8.330;2023-09-19T05:30:05;100161.84;;;16.25;100.00
11525;BME280;5819;49.648;8.330;2023-09-19T05:32:33;100159.97;;;16.14;100.00
11525;BME280;5819;49.648;8.330;2023-09-19T05:35:00;100154.09;;;16.11;100.00
11525;BME280;5819;49.648;8.330;2023-09-19T05:37:30;100158.63;;;16.09;100.00
11525;BME280;5819;49.648;8.330;2023-09-19T05:39:58;100160.50;;;16.07;100.00
11525;BME280;5819;49.648;8.330;2023-09-19T05:42:26;100152.31;;;16.11;100.00
11525;BME280;5819;49.648;8.330;2023-09-19T05:44:54;100155.25;;;16.19;100.00
11525;BME280;5819;49.648;8.330;2023-09-19T05:47:23;100148.75;;;16.12;100.00
11525;BME280;5819;49.648;8.330;2023-09-19T05:49:52;100156.59;;;16.25;100.00
11525;BME280;5819;49.648;8.330;2023-09-19T05:52:20;100161.22;;;16.21;100.00
11525;BME280;5819;49.648;8.330;2023-09-19T05:54:50;100171.53;;;16.24;100.00
11525;BME280;5819;49.648;8.330;2023-09-19T05:57:18;100177.28;;;16.29;100.00
11525;BME280;5819;49.648;8.330;2023-09-19T05:59:46;100178.03;;;16.31;100.00
11525;BME280;5819;49.648;8.330;2023-09-19T06:02:15;100183.81;;;16.36;100.00
11525;BME280;5819;49.648;8.330;2023-09-19T06:04:46;100190.94;;;16.34;100.00
11525;BME280;5819;49.648;8.330;2023-09-19T06:07:14;100190.94;;;16.47;100.00
11525;BME280;5819;49.648;8.330;2023-09-19T06:09:43;100188.63;;;16.55;100.00
11525;BME280;5819;49.648;8.330;2023-09-19T06:12:13;100194.13;;;16.65;100.00
11525;BME280;5819;49.648;8.330;2023-09-19T06:14:42;100189.69;;;16.65;100.00
11525;BME280;5819;49.648;8.330;2023-09-19T06:17:10;100179.38;;;16.75;100.00
11525;BME280;5819;49.648;8.330;2023-09-19T06:19:39;100178.84;;;16.82;100.00
11525;BME280;5819;49.648;8.330;2023-09-19T06:22:08;100174.50;;;16.94;100.00
11525;BME280;5819;49.648;8.330;2023-09-19T06:24:36;100184.38;;;16.91;100.00
11525;BME280;5819;49.648;8.330;2023-09-19T06:27:04;100181.75;;;16.91;100.00
11525;BME280;5819;49.648;8.330;2023-09-19T06:29:35;100179.53;;;16.97;100.00
11525;BME280;5819;49.648;8.330;2023-09-19T06:32:07;100177.34;;;16.91;100.00
11525;BME280;5819;49.648;8.330;2023-09-19T06:34:35;100182.50;;;16.93;100.00
11525;BME280;5819;49.648;8.330;2023-09-19T06:37:05;100182.28;;;16.96;100.00
11525;BME280;5819;49.648;8.330;2023-09-19T06:39:34;100187.75;;;16.93;100.00
11525;BME280;5819;49.648;8.330;2023-09-19T06:42:02;100188.56;;;16.93;100.00
11525;BME280;5819;49.648;8.330;2023-09-19T06:44:30;100200.38;;;16.88;100.00
11525;BME280;5819;49.648;8.330;2023-09-19T06:46:59;100202.06;;;16.89;100.00
11525;BME280;5819;49.648;8.330;2023-09-19T06:49:28;100210.91;;;16.88;100.00
11525;BME280;5819;49.648;8.330;2023-09-19T06:51:58;100208.66;;;16.94;100.00
11525;BME280;5819;49.648;8.330;2023-09-19T06:54:27;100207.31;;;16.89;100.00
11525;BME280;5819;49.648;8.330;2023-09-19T06:56:57;100224.59;;;17.16;100.00
11525;BME280;5819;49.648;8.330;2023-09-19T06:59:26;100228.72;;;17.08;100.00
11525;BME280;5819;49.648;8.330;2023-09-19T07:01:55;100223.59;;;16.94;100.00
11525;BME280;5819;49.648;8.330;2023-09-19T07:04:27;100227.47;;;17.01;100.00
11525;BME280;5819;49.648;8.330;2023-09-19T07:06:55;100225.78;;;17.00;100.00
11525;BME280;5819;49.648;8.330;2023-09-19T07:09:23;100230.53;;;16.95;100.00
11525;BME280;5819;49.648;8.330;2023-09-19T07:11:54;100217.03;;;17.12;100.00
11525;BME280;5819;49.648;8.330;2023-09-19T07:14:22;100225.03;;;17.10;100.00
11525;BME280;5819;49.648;8.330;2023-09-19T07:16:50;100229.47;;;17.33;100.00
11525;BME280;5819;49.648;8.330;2023-09-19T07:19:18;100236.03;;;17.28;100.00
11525;BME280;5819;49.648;8.330;2023-09-19T07:21:47;100240.56;;;17.13;100.00
11525;BME280;5819;49.648;8.330;2023-09-19T07:24:17;100238.66;;;17.52;100.00
11525;BME280;5819;49.648;8.330;2023-09-19T07:26:45;100248.66;;;17.59;100.00
11525;BME280;5819;49.648;8.330;2023-09-19T07:29:13;100253.91;;;17.59;100.00
11525;BME280;5819;49.648;8.330;2023-09-19T07:31:41;100254.63;;;17.61;100.00
11525;BME280;5819;49.648;8.330;2023-09-19T07:34:12;100257.00;;;17.77;100.00
11525;BME280;5819;49.648;8.330;2023-09-19T07:36:40;100267.31;;;17.80;100.00
11525;BME280;5819;49.648;8.330;2023-09-19T07:39:10;100270.34;;;17.98;100.00
11525;BME280;5819;49.648;8.330;2023-09-19T07:41:48;100267.63;;;17.75;99.45
11525;BME280;5819;49.648;8.330;2023-09-19T07:44:17;100264.88;;;18.01;99.29
11525;BME280;5819;49.648;8.330;2023-09-19T07:46:45;100271.66;;;17.92;97.26
11525;BME280;5819;49.648;8.330;2023-09-19T07:49:13;100274.22;;;17.57;95.88
11525;BME280;5819;49.648;8.330;2023-09-19T07:51:42;100266.59;;;17.65;92.66
11525;BME280;5819;49.648;8.330;2023-09-19T07:54:14;100269.88;;;17.69;91.42
11525;BME280;5819;49.648;8.330;2023-09-19T07:56:43;100276.25;;;17.77;93.16
11525;BME280;5819;49.648;8.330;2023-09-19T07:59:12;100265.22;;;17.96;93.01
11525;BME280;5819;49.648;8.330;2023-09-19T08:01:40;100273.91;;;18.20;92.63
11525;BME280;5819;49.648;8.330;2023-09-19T08:04:10;100270.97;;;18.36;90.74
11525;BME280;5819;49.648;8.330;2023-09-19T08:06:38;100275.47;;;18.23;89.77
11525;BME280;5819;49.648;8.330;2023-09-19T08:09:06;100279.31;;;18.30;89.43
11525;BME280;5819;49.648;8.330;2023-09-19T08:11:39;100281.69;;;18.22;89.07
11525;BME280;5819;49.648;8.330;2023-09-19T08:14:06;100296.34;;;17.78;88.62
11525;BME280;5819;49.648;8.330;2023-09-19T08:16:35;100296.28;;;17.67;88.54
11525;BME280;5819;49.648;8.330;2023-09-19T08:19:03;100298.66;;;17.83;89.39
11525;BME280;5819;49.648;8.330;2023-09-19T08:21:32;100298.69;;;17.94;88.64
11525;BME280;5819;49.648;8.330;2023-09-19T08:24:00;100295.91;;;17.85;88.78
11525;BME280;5819;49.648;8.330;2023-09-19T08:26:30;100296.66;;;17.98;87.58
11525;BME280;5819;49.648;8.330;2023-09-19T08:28:59;100294.22;;;18.07;87.27
11525;BME280;5819;49.648;8.330;2023-09-19T08:31:32;100291.09;;;18.13;86.73
11525;BME280;5819;49.648;8.330;2023-09-19T08:34:00;100293.78;;;18.24;86.15
11525;BME280;5819;49.648;8.330;2023-09-19T08:36:28;100290.00;;;18.40;85.69
11525;BME280;5819;49.648;8.330;2023-09-19T08:38:57;100282.53;;;18.80;83.93
11525;BME280;5819;49.648;8.330;2023-09-19T08:41:25;100283.16;;;18.72;82.74
11525;BME280;5819;49.648;8.330;2023-09-19T08:43:53;100289.41;;;18.47;81.49
11525;BME280;5819;49.648;8.330;2023-09-19T08:46:24;100286.63;;;18.61;80.55
11525;BME280;5819;49.648;8.330;2023-09-19T08:49:04;100292.53;;;18.41;81.46
11525;BME280;5819;49.648;8.330;2023-09-19T08:51:39;100286.97;;;18.79;80.05
11525;BME280;5819;49.648;8.330;2023-09-19T08:54:15;100294.41;;;18.39;79.06
11525;BME280;5819;49.648;8.330;2023-09-19T08:56:50;100287.72;;;18.81;80.79
11525;BME280;5819;49.648;8.330;2023-09-19T08:59:21;100289.75;;;19.00;80.75
11525;BME280;5819;49.648;8.330;2023-09-19T09:01:53;100290.94;;;18.96;79.76
11525;BME280;5819;49.648;8.330;2023-09-19T09:04:22;100295.97;;;19.21;79.40
11525;BME280;5819;49.648;8.330;2023-09-19T09:06:51;100288.28;;;19.29;79.12
11525;BME280;5819;49.648;8.330;2023-09-19T09:09:20;100285.63;;;19.40;77.12
11525;BME280;5819;49.648;8.330;2023-09-19T09:11:49;100295.72;;;19.35;76.63
11525;BME280;5819;49.648;8.330;2023-09-19T09:14:19;100299.69;;;18.96;77.06
11525;BME280;5819;49.648;8.330;2023-09-19T09:16:48;100293.06;;;19.35;76.14
11525;BME280;5819;49.648;8.330;2023-09-19T09:19:18;100296.91;;;18.98;74.40
11525;BME280;5819;49.648;8.330;2023-09-19T09:21:51;100296.19;;;19.51;76.65
11525;BME280;5819;49.648;8.330;2023-09-19T09:24:28;100283.66;;;19.76;73.95
11525;BME280;5819;49.648;8.330;2023-09-19T09:26:57;100298.28;;;20.12;74.73
11525;BME280;5819;49.648;8.330;2023-09-19T09:29:44;100291.94;;;19.71;73.92
11525;BME280;5819;49.648;8.330;2023-09-19T09:32:17;100299.19;;;19.36;73.21
11525;BME280;5819;49.648;8.330;2023-09-19T09:34:50;100305.06;;;19.06;72.71
11525;BME280;5819;49.648;8.330;2023-09-19T09:37:19;100301.84;;;19.25;73.12
11525;BME280;5819;49.648;8.330;2023-09-19T09:39:52;100294.72;;;19.70;70.84
11525;BME280;5819;49.648;8.330;2023-09-19T09:42:30;100273.19;;;20.06;68.50
11525;BME280;5819;49.648;8.330;2023-09-19T09:45:16;100263.50;;;20.27;66.56
11525;BME280;5819;49.648;8.330;2023-09-19T09:47:45;100252.47;;;20.22;66.61
11525;BME280;5819;49.648;8.330;2023-09-19T09:50:26;100259.38;;;20.34;66.45
11525;BME280;5819;49.648;8.330;2023-09-19T09:53:21;100279.06;;;19.89;68.01
11525;BME280;5819;49.648;8.330;2023-09-19T09:55:59;100272.41;;;19.62;66.55
11525;BME280;5819;49.648;8.330;2023-09-19T09:58:28;100269.34;;;19.89;67.18
11525;BME280;5819;49.648;8.330;2023-09-19T10:00:59;100258.53;;;20.13;66.05
11525;BME280;5819;49.648;8.330;2023-09-19T10:03:33;100243.13;;;20.60;65.09
11525;BME280;5819;49.648;8.330;2023-09-19T10:06:10;100240.19;;;20.53;66.02
11525;BME280;5819;49.648;8.330;2023-09-19T10:09:04;100241.41;;;20.79;65.75
11525;BME280;5819;49.648;8.330;2023-09-19T10:11:42;100234.66;;;21.26;65.69
11525;BME280;5819;49.648;8.330;2023-09-19T10:14:16;100216.22;;;21.15;63.44
11525;BME280;5819;49.648;8.330;2023-09-19T10:16:47;100233.44;;;21.00;65.75
11525;BME280;5819;49.648;8.330;2023-09-19T10:19:20;100232.75;;;21.08;65.52
11525;BME280;5819;49.648;8.330;2023-09-19T10:21:54;100234.78;;;20.85;64.43
11525;BME280;5819;49.648;8.330;2023-09-19T10:24:24;100223.72;;;21.10;63.37
11525;BME280;5819;49.648;8.330;2023-09-19T10:26:55;100221.72;;;20.93;61.40
11525;BME280;5819;49.648;8.330;2023-09-19T10:29:24;100231.16;;;20.86;63.73
11525;BME280;5819;49.648;8.330;2023-09-19T10:31:56;100243.66;;;20.84;64.95
11525;BME280;5819;49.648;8.330;2023-09-19T10:34:26;100220.75;;;21.03;63.23
11525;BME280;5819;49.648;8.330;2023-09-19T10:36:56;100223.00;;;21.08;62.26
11525;BME280;5819;49.648;8.330;2023-09-19T10:39:24;100220.59;;;21.35;61.66
11525;BME280;5819;49.648;8.330;2023-09-19T10:41:53;100215.53;;;21.23;61.49
11525;BME280;5819;49.648;8.330;2023-09-19T10:44:25;100223.00;;;21.58;62.32
11525;BME280;5819;49.648;8.330;2023-09-19T10:46:55;100224.53;;;21.89;61.52
11525;BME280;5819;49.648;8.330;2023-09-19T10:49:24;100221.72;;;21.52;60.58
11525;BME280;5819;49.648;8.330;2023-09-19T10:51:54;100221.53;;;21.15;60.92
11525;BME280;5819;49.648;8.330;2023-09-19T10:54:29;100209.88;;;21.75;60.37
11525;BME280;5819;49.648;8.330;2023-09-19T10:57:00;100202.38;;;21.80;57.39
11525;BME280;5819;49.648;8.330;2023-09-19T10:59:31;100207.94;;;22.16;58.58
11525;BME280;5819;49.648;8.330;2023-09-19T11:02:16;100191.47;;;22.68;56.30
11525;BME280;5819;49.648;8.330;2023-09-19T11:04:45;100168.88;;;23.37;53.75
11525;BME280;5819;49.648;8.330;2023-09-19T11:07:15;100154.41;;;23.66;54.07
11525;BME280;5819;49.648;8.330;2023-09-19T11:09:46;100173.66;;;22.88;53.73
11525;BME280;5819;49.648;8.330;2023-09-19T11:12:49;100175.53;;;22.78;54.52
11525;BME280;5819;49.648;8.330;2023-09-19T11:18:53;100181.59;;;22.51;54.18
11525;BME280;5819;49.648;8.330;2023-09-19T11:21:52;100169.59;;;22.57;54.04
11525;BME280;5819;49.648;8.330;2023-09-19T11:24:29;100164.31;;;22.10;53.11
11525;BME280;5819;49.648;8.330;2023-09-19T11:27:12;100164.88;;;22.51;54.07
11525;BME280;5819;49.648;8.330;2023-09-19T11:29:40;100153.72;;;22.47;53.44
11525;BME280;5819;49.648;8.330;2023-09-19T11:32:08;100156.97;;;22.78;54.68
11525;BME280;5819;49.648;8.330;2023-09-19T11:34:40;100167.63;;;22.59;55.03
11525;BME280;5819;49.648;8.330;2023-09-19T11:40:37;100153.53;;;23.13;55.36
11525;BME280;5819;49.648;8.330;2023-09-19T11:43:37;100162.69;;;22.36;54.56
11525;BME280;5819;49.648;8.330;2023-09-19T11:46:08;100164.66;;;22.71;54.65
11525;BME280;5819;49.648;8.330;2023-09-19T11:48:40;100155.97;;;22.79;55.33
11525;BME280;5819;49.648;8.330;2023-09-19T11:51:18;100142.78;;;23.14;54.80
11525;BME280;5819;49.648;8.330;2023-09-19T11:53:55;100143.59;;;23.32;54.30
11525;BME280;5819;49.648;8.330;2023-09-19T11:56:24;100147.47;;;23.20;53.50
11525;BME280;5819;49.648;8.330;2023-09-19T11:58:56;100147.31;;;22.77;54.15
11525;BME280;5819;49.648;8.330;2023-09-19T12:01:26;100151.25;;;22.63;54.50
11525;BME280;5819;49.648;8.330;2023-09-19T12:03:57;100147.19;;;22.78;53.70
11525;BME280;5819;49.648;8.330;2023-09-19T12:06:27;100139.78;;;23.00;53.68
11525;BME280;5819;49.648;8.330;2023-09-19T12:08:56;100127.97;;;23.83;53.33
11525;BME280;5819;49.648;8.330;2023-09-19T12:11:28;100130.66;;;23.29;52.62
11525;BME280;5819;49.648;8.330;2023-09-19T12:14:00;100111.50;;;23.79;50.75
11525;BME280;5819;49.648;8.330;2023-09-19T12:16:28;100121.13;;;23.80;52.02
11525;BME280;5819;49.648;8.330;2023-09-19T12:18:57;100113.84;;;24.08;51.49
11525;BME280;5819;49.648;8.330;2023-09-19T12:21:27;100109.09;;;24.19;51.44
11525;BME280;5819;49.648;8.330;2023-09-19T12:24:05;100097.63;;;24.87;50.08
11525;BME280;5819;49.648;8.330;2023-09-19T12:26:43;100105.75;;;24.43;52.23
11525;BME280;5819;49.648;8.330;2023-09-19T12:29:14;100102.84;;;24.62;52.06
11525;BME280;5819;49.648;8.330;2023-09-19T12:31:48;100095.84;;;24.61;50.00
11525;BME280;5819;49.648;8.330;2023-09-19T12:34:22;100110.41;;;24.15;49.98
11525;BME280;5819;49.648;8.330;2023-09-19T12:37:04;100113.38;;;23.87;51.94
11525;BME280;5819;49.648;8.330;2023-09-19T12:39:42;100114.78;;;23.73;51.81
11525;BME280;5819;49.648;8.330;2023-09-19T12:42:11;100120.22;;;23.71;52.62
11525;BME280;5819;49.648;8.330;2023-09-19T12:44:44;100120.53;;;23.43;52.32
11525;BME280;5819;49.648;8.330;2023-09-19T12:47:13;100118.66;;;23.43;52.96
11525;BME280;5819;49.648;8.330;2023-09-19T12:50:08;100135.00;;;23.03;53.44
11525;BME280;5819;49.648;8.330;2023-09-19T12:52:41;100127.22;;;23.19;53.38
11525;BME280;5819;49.648;8.330;2023-09-19T12:55:19;100131.59;;;22.66;55.15
11525;BME280;5819;49.648;8.330;2023-09-19T12:57:58;100137.75;;;22.29;55.40
11525;BME280;5819;49.648;8.330;2023-09-19T13:00:46;100129.06;;;22.37;54.95
11525;BME280;5819;49.648;8.330;2023-09-19T13:03:24;100136.50;;;22.61;56.27
11525;BME280;5819;49.648;8.330;2023-09-19T13:05:54;100135.63;;;22.33;56.21
11525;BME280;5819;49.648;8.330;2023-09-19T13:08:27;100133.66;;;22.35;57.46
11525;BME280;5819;49.648;8.330;2023-09-19T13:11:05;100134.16;;;22.11;56.62
11525;BME280;5819;49.648;8.330;2023-09-19T13:13:38;100125.88;;;22.33;56.65
11525;BME280;5819;49.648;8.330;2023-09-19T13:16:08;100135.00;;;22.12;56.79
11525;BME280;5819;49.648;8.330;2023-09-19T13:18:44;100127.34;;;22.18;56.20
11525;BME280;5819;49.648;8.330;2023-09-19T13:21:13;100140.22;;;21.94;57.69
11525;BME280;5819;49.648;8.330;2023-09-19T13:23:50;100135.53;;;22.15;57.10
11525;BME280;5819;49.648;8.330;2023-09-19T13:26:19;100131.09;;;22.16;56.47